Aviation Digital Data Service (ADDS)

Output produced by TAFs form (1957 UTC 25 February 2018)
found at http://aviationweather.gov/adds/tafs/
 
METAR text: UUEE 251930Z 01002MPS 9000 -SN SCT019 M17/M20 Q1024 R06L/410340 R06R/410345 NOSIG
Conditions at: UUEE (MOSCOW/SHEREMET', RU) observed 1930 UTC 25 February 2018
Temperature: -17.0°C (1°F)
Dewpoint: -20.0°C (-4°F) [RH = 77%]
Pressure (altimeter): 30.24 inches Hg (1024.0 mb)
Winds: from the N (10 degrees) at 5 MPH (4 knots; 2.1 m/s)
Visibility: 6 miles (9 km)
Ceiling: at least 12,000 feet AGL
Clouds: scattered clouds at 1900 feet AGL
Weather: -SN  (light snow)

Forecast for: UUEE (MOSCOW/SHEREMET', RU)
Text: TAF UUEE 251658Z 2518/2618 36003MPS 9999 BKN011 TXM14/2613Z TNM23/2603Z
Forecast period: 1800 UTC 25 February 2018 to 1800 UTC 26 February 2018
Forecast type: FROM: standard forecast or significant change
Winds: from the N (360 degrees) at 7 MPH (6 knots; 3.1 m/s)
Visibility: 6 or more miles (10+ km)
Ceiling: 1100 feet AGL
Clouds: broken clouds at 1100 feet AGL
Weather: no significant weather forecast for this period
Text: TEMPO 2518/2606 3100 -SN BR SCT003
Forecast period: 1800 UTC 25 February 2018 to 0600 UTC 26 February 2018
Forecast type: TEMPORARY: The following changes expected for less than half the time period
Visibility: 1.93 miles (3.11 km)
Clouds: scattered clouds at 300 feet AGL
Weather: -SN BR  (light snow, mist)